KMWH/MWH METAR and TAF weather

Enter ICAO airport designator
Station Type Date Time Source
KMWH METAR 2019/07/17 17:52 UTC NOAA

KMWH 171752Z 22015G19KT 10SM OVC090 23/09 A2985 RMK AO2 SLP100 T02280089 10228 20183 51004


Station Type Date Time Source
KMWH Decoded METAR 2019/07/17 17:52 UTC NOAA

GRANT COUNTY AIRPORT, WA, United States (KMWH) 47-12N 119-19W 362M
Jul 17, 2019 - 01:52 PM EDT / 2019.07.17 1752 UTC
Wind: from the SW (220 degrees) at 17 MPH (15 KT) gusting to 22 MPH (19 KT):0
Visibility: 10 mile(s):0
Sky conditions: overcast
Temperature: 73.0 F (22.8 C)
Dew Point: 48.0 F (8.9 C)
Relative Humidity: 41%
Pressure (altimeter): 29.85 in. Hg (1010 hPa)
Pressure tendency: 0.01 inches (0.4 hPa) higher than three hours ago
ob: KMWH 171752Z 22015G19KT 10SM OVC090 23/09 A2985 RMK AO2 SLP100 T02280089 10228 20183 51004
cycle: 18

Station Type Date Time Source
KMWH TAF 2019/07/17 18:33 UTC NOAA

TAF KMWH 171730Z 1718/1818 24012G20KT P6SM BKN080 OVC110
FM171900 24015G25KT P6SM SCT100 BKN150 OVC200
FM180500 27011G18KT P6SM FEW080 SCT250
FM180800 24009KT P6SM FEW100 SCT250

Example: see airport list